AirNav   Bose ProFlight Series 2 Headset
 
 912 users online  

3FL6 Wink TV Heliport
Fort Myers, Florida, USA

GOING TO FORT MYERS?


FAA INFORMATION EFFECTIVE 30 JANUARY 2020

Location

FAA Identifier: 3FL6
Lat/Long: 26-39-03.0000N 081-51-20.0000W
26-39.050000N 081-51.333333W
26.6508333,-81.8555556
(estimated)
Elevation: 6 ft. / 2 m (estimated)
Variation: 03W (1995)
From city: 1 mile NE of FORT MYERS, FL
Time zone: UTC -5 (UTC -4 during Daylight Saving Time)
Zip code: 33916

Heliport Operations

Heliport use: Private use. Permission required prior to landing
Activation date: 03/1999
Control tower: no
ARTCC: MIAMI CENTER
FSS: MIAMI FLIGHT SERVICE STATION
Attendance: UNATNDD
Wind indicator: no
Segmented circle: no

Heliport Communications

WX ASOS at FMY (4 nm S): 123.725 (239-936-2318)
WX ASOS at RSW (9 nm SE): PHONE 239-561-0966
WX ASOS at PGD (18 nm NW): 135.675 (941-639-0076)

Nearby radio navigation aids

VOR radial/distance  VOR name  Freq  Var
RSWr331/8.4LEE COUNTY VORTAC111.8002W
PGDr162/(17.5)PUNTA GORDA VOR110.2006W
LBVr246/27.1LA BELLE VORTAC110.4001E
CYYr355/30.1CYPRESS VOR/DME108.6003W

 
NDB name  Hdg/Dist  Freq  Var  ID
CALOO035/9.534103WFM ..-. --

Heliport Services

Runway Information

Helipad H1

Dimensions: 40 x 40 ft. / 12 x 12 m
Surface: asphalt
Traffic pattern: leftleft

Heliport Ownership and Management from official FAA records

Ownership: Privately-owned
Owner: FORT MYERS BROADCASTING COMPANY
2824 PALM BEACH BLVD
FORT MYERS, FL 33916
Phone 239-334-1111
Manager: JOSEPH SCHWARTZEL
2824 PALM BEACH BLVD
FORT MYERS, FL 33916
Phone 239-334-1111
GENERAL MANAGER OF FORT MYERS BROADCASTING COMPANY.

Additional Remarks

FOR CD CTC FORT MYERS APCH AT 239-768-1377, WHEN APCH CLSD CTC MIAMI ARTCC AT 305-716-1731.

Instrument Procedures

There are no published instrument procedures at 3FL6.

Some nearby airports with instrument procedures:

KFMY - Page Field Airport (4 nm S)
KRSW - Southwest Florida International Airport (9 nm SE)
KPGD - Punta Gorda Airport (18 nm NW)
X14 - La Belle Municipal Airport (24 nm E)
KIMM - Immokalee Regional Airport (28 nm SE)
 
Loc | Ops | Rwys | IFR | FBO | Links
Com | Nav | Svcs | Stats | Notes


 
Area around 3FL6 (Wink TV Heliport)
 
Road maps at: MapQuest Bing Google
 
Aerial photo
No photo
 
Sectional chart

 
Airport distance calculator
Flying to Wink TV Heliport? Find the distance to fly.

From to 3FL6

Sunrise and sunset
Times for 16-Feb-2020
 Local
(UTC-5)
 Zulu
(UTC)
Morning civil twilight06:4011:40
Sunrise07:0412:04
Sunset18:1923:19
Evening civil twilight18:4323:43

Current date and time
Zulu (UTC)  17-Feb-2020 01:20:50
Local (UTC-5)  16-Feb-2020 20:20:50
 
METAR
KFMY 
4nm S 
170053Z 26003KT 10SM FEW060 23/19 A3006 RMK AO2 SLP180 T02330194
KRSW 
9nm SE 
170053Z 29003KT 10SM CLR 23/21 A3006 RMK AO2 SLP178 T02280206
KPGD 
18nm NW 
170053Z 28005KT 10SM SCT047 22/21 A3008 RMK AO2 SLP186 T02220211
TAF
KFMY 
4nm S 
161720Z 1618/1718 14008KT P6SM SCT025 BKN035 FM162000 21010KT P6SM VCSH BKN035 FM170200 VRB03KT P6SM FEW015 SCT025 BKN100 FM170800 00000KT 5SM BR SCT006 OVC015 TEMPO 1708/1712 2SM BR BKN006 FM171500 VRB03KT P6SM SCT015 BKN025 OVC050
KRSW 
9nm SE 
161720Z 1618/1718 15010KT P6SM SCT025 BKN035 FM162000 22010KT P6SM VCSH BKN035 FM170200 VRB03KT P6SM FEW015 SCT025 BKN100 FM170800 00000KT 5SM BR SCT006 OVC015 TEMPO 1708/1712 2SM BR BKN006 FM171500 VRB03KT P6SM SCT015 BKN025 OVC050
KPGD 
18nm NW 
161720Z 1618/1718 15012KT P6SM SCT025 BKN035 FM162000 22010KT P6SM VCSH BKN035 FM170200 VRB03KT P6SM FEW015 SCT025 BKN100 FM170800 00000KT 4SM BR SCT006 OVC015 TEMPO 1708/1712 2SM BR BKN006 FM171500 VRB03KT P6SM SCT015 BKN025 OVC050
NOTAMs
Click for the latest NOTAMs
NOTAMs are issued by the DoD/FAA and will open in a separate window not controlled by AirNav.

 

 
 

Would you like to see your business listed on this page?

 If your business provides an interesting product or service to pilots, flight crews, aircraft, or users of the Wink TV Heliport, you should consider listing it here.  To start the listing process, click on the button below
 
Add a business
 

Other Pages about Wink TV Heliport

Update a link
 
Copyright © AirNav, LLC. All rights reserved. Privacy Policy  Contact